Time;durP1;ratioP1;P1;durP2;ratioP2;P2;SDS_P1;SDS_P2;PMS_P1;PMS_P2;Temp;Humidity;BMP_temperature;BMP_pressure;BME280_temperature;BME280_humidity;BME280_pressure;Samples;Min_cycle;Max_cycle;Signal;HPM_P1;HPM_P2
2024/03/16 00:01:41;;;;;;;4.80;4.40;;;11.40;99.90;;;-141.84;80.00;26868.44;5029624;28;20230;-61
2024/03/16 00:04:14;;;;;;;5.63;4.53;;;11.40;99.90;;;-141.84;78.68;23001.88;5032232;28;20257;-63
2024/03/16 00:06:43;;;;;;;5.27;4.50;;;11.40;99.90;;;-141.84;77.25;20622.81;5051447;28;20345;-63
2024/03/16 00:09:15;;;;;;;5.10;4.60;;;11.50;99.90;;;-141.84;75.08;19303.75;5048381;28;20230;-62
2024/03/16 00:11:43;;;;;;;4.80;4.40;;;11.60;99.90;;;-141.84;75.40;19482.56;5057936;28;20244;-61
2024/03/16 00:14:14;;;;;;;4.67;4.27;;;11.60;99.90;;;-141.84;75.01;19317.97;5058351;28;20232;-64
2024/03/16 00:16:43;;;;;;;4.77;4.37;;;11.70;99.90;;;-141.84;74.94;19289.53;5058659;28;20810;-62
2024/03/16 00:19:14;;;;;;;4.70;4.30;;;11.70;99.90;;;-141.84;74.60;19226.53;5058979;28;20201;-63
2024/03/16 00:21:43;;;;;;;5.27;4.23;;;11.70;99.90;;;-141.84;74.61;19198.09;5051924;28;20693;-63
2024/03/16 00:24:14;;;;;;;4.53;4.13;;;11.70;99.90;;;-141.84;74.04;19104.59;5059015;28;20216;-62
2024/03/16 00:26:43;;;;;;;5.23;4.73;;;11.80;99.90;;;-141.84;73.29;19055.84;5033548;28;20229;-62
2024/03/16 00:29:15;;;;;;;5.00;4.60;;;11.80;99.90;;;-141.84;74.33;19183.84;5038329;28;20227;-62
2024/03/16 00:31:43;;;;;;;4.93;4.30;;;11.80;99.90;;;-141.84;75.46;19484.59;5053379;28;20244;-63
2024/03/16 00:34:15;;;;;;;4.53;3.67;;;11.80;99.90;;;-141.84;73.60;19055.84;5059240;28;20216;-62
2024/03/16 00:36:43;;;;;;;4.50;4.10;;;11.80;99.90;;;-141.84;73.52;19045.69;5058080;28;20220;-57
2024/03/16 00:39:18;;;;;;;4.70;4.20;;;11.80;99.90;;;-141.84;73.72;19112.75;5058359;28;20212;-57
2024/03/16 00:41:47;;;;;;;4.93;4.23;;;11.80;99.90;;;-141.84;71.89;18903.44;5060699;28;20599;-57
2024/03/16 00:44:20;;;;;;;4.80;4.30;;;11.80;99.90;;;-141.84;73.04;18952.22;5036281;28;20270;-62
2024/03/16 00:46:47;;;;;;;4.30;3.90;;;11.80;99.90;;;-141.84;75.81;19529.31;5059029;28;20292;-56
2024/03/16 00:49:20;;;;;;;4.50;3.93;;;11.60;99.90;;;-141.84;76.06;19702.06;5050015;28;20263;-57
2024/03/16 00:51:51;;;;;;;4.20;3.80;;;11.50;99.90;;;-141.84;77.13;20187.81;5074782;28;20629;-56
2024/03/16 00:54:21;;;;;;;4.17;3.87;;;11.50;99.90;;;-141.84;78.12;21342.47;5020652;28;20224;-56
2024/03/16 00:56:54;;;;;;;4.43;4.03;;;11.40;99.90;;;-141.84;78.40;21643.38;5058021;28;20228;-55
2024/03/16 00:59:23;;;;;;;7.50;4.13;;;11.30;99.90;;;-141.84;76.93;20283.34;5050697;28;20221;-63
2024/03/16 01:01:54;;;;;;;4.60;4.20;;;11.30;99.90;;;-141.84;76.78;20088.22;5069483;28;20227;-63
2024/03/16 01:04:24;;;;;;;4.30;3.90;;;11.30;99.90;;;-141.84;76.97;20094.31;5057772;28;20185;-57
2024/03/16 01:06:55;;;;;;;4.73;3.80;;;11.30;99.90;;;-141.84;75.68;19458.19;5059787;28;20192;-55
2024/03/16 01:09:25;;;;;;;5.50;3.93;;;11.40;99.90;;;-141.84;76.91;20019.13;5053853;28;20221;-57
2024/03/16 01:11:55;;;;;;;4.93;3.80;;;11.40;99.90;;;-141.84;76.70;19986.59;5057826;28;20252;-57
2024/03/16 01:14:23;;;;;;;4.70;3.72;;;11.40;99.90;;;-141.84;76.46;19935.78;5059215;28;20274;-56
2024/03/16 01:16:55;;;;;;;4.23;3.87;;;11.40;99.90;;;-141.84;76.47;19862.63;5056111;28;20224;-56
2024/03/16 01:19:25;;;;;;;4.07;3.67;;;11.40;99.90;;;-141.84;77.71;20724.44;5058731;28;20189;-57
2024/03/16 01:21:55;;;;;;;5.10;3.67;;;11.30;99.90;;;-141.84;77.53;20968.38;5067866;28;20215;-58
2024/03/16 01:24:23;;;;;;;4.07;3.67;;;11.30;99.90;;;-141.84;74.42;19124.94;5051573;28;20252;-57
2024/03/16 01:26:54;;;;;;;5.03;3.70;;;11.40;99.90;;;-141.84;75.80;19543.53;5031175;28;20221;-57
2024/03/16 01:29:23;;;;;;;4.60;4.20;;;11.40;99.90;;;-141.84;76.85;20008.94;5050938;28;20255;-56
2024/03/16 01:31:54;;;;;;;4.27;3.87;;;11.40;99.90;;;-141.84;77.36;20464.25;5037872;28;20289;-62
2024/03/16 01:34:23;;;;;;;6.17;4.20;;;11.30;99.90;;;-141.84;74.58;19145.25;5039786;28;20322;-63
2024/03/16 01:36:54;;;;;;;5.33;4.13;;;11.40;99.90;;;-141.84;75.48;19435.84;5052826;28;20197;-63
2024/03/16 01:39:23;;;;;;;4.22;3.70;;;11.40;99.90;;;-141.84;74.50;19230.59;5047346;28;20216;-62
2024/03/16 01:41:55;;;;;;;4.20;3.80;;;11.50;99.90;;;-141.84;74.41;19106.66;5076369;28;20219;-62
2024/03/16 01:44:23;;;;;;;4.13;3.77;;;11.50;99.90;;;-141.84;74.70;19236.69;5057347;28;20225;-63
2024/03/16 01:46:54;;;;;;;4.10;3.70;;;11.50;99.90;;;-141.84;75.05;19305.78;5057302;28;20253;-58
2024/03/16 01:49:23;;;;;;;6.07;4.18;;;11.50;99.90;;;-141.84;75.26;19419.59;5036809;28;20252;-59
2024/03/16 01:51:56;;;;;;;5.20;3.63;;;11.50;99.90;;;-141.84;72.86;18925.81;5069749;28;20284;-56
2024/03/16 01:54:25;;;;;;;4.63;3.70;;;11.60;99.90;;;-141.84;73.96;19074.13;5052690;28;20224;-56
2024/03/16 01:56:55;;;;;;;4.10;3.70;;;11.60;99.90;;;-141.84;74.36;19149.31;5057859;28;20246;-56
2024/03/16 01:59:23;;;;;;;3.67;3.37;;;11.50;99.90;;;-141.84;74.43;19196.06;5057622;28;20226;-57
2024/03/16 02:01:54;;;;;;;4.20;3.73;;;11.50;99.90;;;-141.84;75.24;19374.88;5057648;28;20654;-56
2024/03/16 02:04:23;;;;;;;3.80;3.47;;;11.50;99.90;;;-141.84;76.00;19675.63;5045010;28;20185;-62
2024/03/16 02:06:55;;;;;;;4.93;3.70;;;11.50;99.90;;;-141.84;75.33;19380.97;5052717;28;20201;-63
2024/03/16 02:09:24;;;;;;;4.20;3.77;;;11.50;99.90;;;-141.84;75.27;19368.78;5053814;28;20434;-63
2024/03/16 02:11:55;;;;;;;3.67;3.37;;;11.40;99.90;;;-141.84;75.49;19472.41;5057310;28;20251;-63
2024/03/16 02:14:23;;;;;;;4.33;3.80;;;11.40;99.90;;;-141.84;76.63;19950.00;5052092;28;20254;-62
2024/03/16 02:16:55;;;;;;;4.20;3.90;;;11.40;99.90;;;-141.84;75.49;19480.53;5057636;28;20216;-62
2024/03/16 02:19:23;;;;;;;3.70;3.40;;;11.40;99.90;;;-141.84;75.89;19553.72;5056480;28;20186;-62
2024/03/16 02:21:55;;;;;;;4.27;3.43;;;11.40;99.90;;;-141.84;76.82;20090.25;5058126;28;20257;-63
2024/03/16 02:24:23;;;;;;;3.73;3.33;;;11.30;99.90;;;-141.84;77.40;20651.25;5053327;28;20225;-63
2024/03/16 02:26:56;;;;;;;4.33;3.50;;;11.30;99.90;;;-141.84;77.99;21456.34;5051123;28;20235;-63
2024/03/16 02:29:24;;;;;;;5.03;3.70;;;11.30;99.90;;;-141.84;77.49;20598.41;5056754;28;20232;-57
2024/03/16 02:31:55;;;;;;;5.07;4.57;;;11.30;99.90;;;-141.84;75.31;19405.34;5057290;28;20256;-57
2024/03/16 02:34:23;;;;;;;4.63;4.30;;;11.30;99.90;;;-141.84;75.86;19533.38;5060016;28;20373;-57
2024/03/16 02:36:55;;;;;;;4.00;3.60;;;11.30;99.90;;;-141.84;77.22;20362.63;5059943;28;20216;-62
2024/03/16 02:39:23;;;;;;;3.30;3.00;;;11.20;99.90;;;-141.84;77.64;20874.88;5059455;28;20311;-63
2024/03/16 02:41:56;;;;;;;5.23;2.70;;;11.20;99.90;;;-141.84;75.79;19549.63;5060341;28;20274;-62
2024/03/16 02:44:25;;;;;;;2.53;2.33;;;11.20;99.90;;;-141.84;74.80;19139.16;5058720;28;20310;-63
2024/03/16 02:46:55;;;;;;;2.63;2.43;;;11.20;99.90;;;-141.84;74.04;19049.75;5048222;28;20284;-62
2024/03/16 02:49:23;;;;;;;2.60;2.40;;;11.20;99.90;;;-141.84;72.73;18885.16;5058246;28;20192;-62
2024/03/16 02:51:55;;;;;;;2.50;2.30;;;11.30;99.90;;;-141.84;73.07;18942.06;5060901;28;20197;-62
2024/03/16 02:54:23;;;;;;;2.40;2.20;;;11.30;99.90;;;-141.84;73.04;18950.19;5062972;28;20306;-63
2024/03/16 02:56:55;;;;;;;2.00;1.47;;;11.30;99.90;;;-141.84;71.06;18805.91;5060074;28;20228;-64
2024/03/16 02:59:23;;;;;;;1.60;1.50;;;11.40;99.90;;;-141.84;72.86;18944.09;5049711;28;20283;-64
2024/03/16 03:01:57;;;;;;;1.80;1.70;;;11.40;99.90;;;-141.84;72.25;18870.94;5070108;28;20292;-62
2024/03/16 03:04:25;;;;;;;3.17;1.70;;;11.40;99.90;;;-141.84;71.75;18836.41;5051251;28;20189;-62
2024/03/16 03:06:55;;;;;;;2.63;1.67;;;11.40;99.90;;;-141.84;73.38;18968.47;5062641;28;20208;-62
2024/03/16 03:09:23;;;;;;;1.57;1.47;;;11.30;99.90;;;-141.84;74.00;19043.66;5055237;28;20220;-56
2024/03/16 03:11:55;;;;;;;2.07;1.60;;;11.30;99.90;;;-141.84;74.31;19082.25;5059887;28;20248;-57
2024/03/16 03:14:23;;;;;;;2.20;2.00;;;11.20;99.90;;;-141.84;70.97;18763.25;5048952;28;20720;-63
2024/03/16 03:16:55;;;;;;;2.33;2.10;;;11.30;99.90;;;-141.84;72.80;18887.19;5030937;28;20250;-57
2024/03/16 03:19:25;;;;;;;1.90;1.70;;;11.30;99.90;;;-141.84;73.94;19035.53;5052026;28;20193;-63
2024/03/16 03:21:55;;;;;;;2.30;2.10;;;11.20;99.90;;;-141.84;74.55;19153.38;5054131;28;20213;-56
2024/03/16 03:24:23;;;;;;;1.90;1.80;;;11.10;99.90;;;-141.84;75.40;19320.00;5047288;28;20225;-61
2024/03/16 03:26:55;;;;;;;1.33;1.23;;;11.00;99.90;;;-141.84;73.80;19029.44;5042026;28;20229;-62
2024/03/16 03:29:23;;;;;;;2.60;1.30;;;11.00;99.90;;;-141.84;74.23;19068.03;5039644;28;20751;-57
2024/03/16 03:31:57;;;;;;;1.27;1.17;;;10.90;99.90;;;-141.84;74.87;19157.44;5032667;28;20254;-62
2024/03/16 03:34:25;;;;;;;2.20;1.80;;;10.80;99.90;;;-141.84;75.43;19295.63;5049360;28;20665;-61
2024/03/16 03:36:55;;;;;;;2.17;2.00;;;10.70;99.90;;;-141.84;74.42;19074.13;5043543;28;20193;-56
2024/03/16 03:39:24;;;;;;;2.80;2.07;;;10.70;99.90;;;-141.84;76.28;19468.34;5050206;28;20277;-57
2024/03/16 03:41:56;;;;;;;1.87;1.77;;;10.70;99.90;;;-141.84;77.68;20309.75;5070430;28;20220;-57
2024/03/16 03:44:35;;;;;;;1.80;1.70;;;10.50;99.90;;;-141.84;78.41;21417.69;5035848;28;20263;-62
2024/03/16 03:47:04;;;;;;;3.03;2.20;;;10.50;99.90;;;-141.84;78.76;21555.97;5046019;28;20220;-57
2024/03/16 03:49:36;;;;;;;2.20;1.50;;;10.40;99.90;;;-141.84;76.60;19702.06;5042847;28;20261;-62
2024/03/16 03:52:04;;;;;;;1.73;1.63;;;10.40;99.90;;;-141.84;76.49;19486.66;5062767;28;20712;-63
2024/03/16 03:54:35;;;;;;;3.20;2.00;;;10.40;99.90;;;-141.84;77.63;20315.88;5056689;28;20225;-62
2024/03/16 03:57:05;;;;;;;1.77;1.63;;;10.30;99.90;;;-141.84;79.12;22111.09;5031488;28;20229;-57
2024/03/16 03:59:35;;;;;;;2.67;2.47;;;10.20;99.90;;;-141.84;77.68;20567.91;5032270;28;20252;-63
2024/03/16 04:02:04;;;;;;;3.00;2.80;;;10.20;99.90;;;-141.84;78.50;21108.66;5033867;28;20225;-57
2024/03/16 04:04:35;;;;;;;2.67;2.30;;;10.30;99.90;;;-141.84;79.70;23632.47;5040162;28;20225;-63
2024/03/16 04:07:04;;;;;;;1.60;1.50;;;10.10;99.90;;;-141.84;80.84;27509.84;5059245;28;20227;-58
2024/03/16 04:09:35;;;;;;;2.53;1.80;;;10.00;99.90;;;-141.84;80.53;26048.00;5057048;28;20216;-63
2024/03/16 04:12:04;;;;;;;2.50;2.30;;;9.90;99.90;;;-141.84;81.03;28222.63;5060020;28;20362;-62
2024/03/16 04:14:35;;;;;;;3.87;3.47;;;9.90;99.90;;;-141.84;82.09;33784.84;5059194;28;20250;-62
2024/03/16 04:17:04;;;;;;;5.00;4.50;;;9.90;99.90;;;-141.84;81.27;29061.88;5059281;28;20235;-58
2024/03/16 04:19:35;;;;;;;2.53;2.20;;;9.90;99.90;;;-141.84;79.84;23604.00;5070060;28;20221;-56
2024/03/16 04:22:04;;;;;;;3.20;3.00;;;9.90;99.90;;;-141.84;81.37;28499.66;5059066;28;20298;-57
2024/03/16 04:24:35;;;;;;;2.20;2.10;;;9.80;99.90;;;-141.84;82.74;38393.06;5058450;28;20217;-57
2024/03/16 04:27:04;;;;;;;1.37;1.27;;;9.70;99.90;;;-141.84;83.01;40550.06;5058228;28;20818;-55
2024/03/16 04:29:35;;;;;;;1.20;1.10;;;9.70;99.90;;;-141.84;83.11;40778.88;5054784;28;20235;-55
2024/03/16 04:32:04;;;;;;;1.80;1.30;;;9.60;99.90;;;-141.84;82.55;36371.97;5047064;28;20232;-57
2024/03/16 04:34:36;;;;;;;1.40;1.20;;;9.60;99.90;;;-141.84;81.73;31558.22;5058650;28;20231;-62
2024/03/16 04:37:05;;;;;;;3.47;2.40;;;9.60;99.90;;;-141.84;81.41;28788.91;5058900;28;20672;-56
2024/03/16 04:39:35;;;;;;;2.77;2.57;;;9.60;99.90;;;-141.84;79.49;22550.34;5062051;28;20224;-63
2024/03/16 04:42:04;;;;;;;2.70;2.50;;;9.70;99.90;;;-141.84;79.86;23534.84;5058157;28;20293;-58
2024/03/16 04:44:35;;;;;;;2.67;1.80;;;9.60;99.90;;;-141.84;80.74;25699.94;5058949;28;20220;-63
2024/03/16 04:47:04;;;;;;;1.63;1.40;;;9.60;99.90;;;-141.84;81.78;30559.47;5057809;28;20753;-62
2024/03/16 04:49:35;;;;;;;1.97;1.87;;;9.50;99.90;;;-141.84;82.26;33568.66;5058531;28;20197;-63
2024/03/16 04:52:04;;;;;;;1.67;1.00;;;9.50;99.90;;;-141.84;80.83;26379.81;5052830;28;20274;-57
2024/03/16 04:54:35;;;;;;;1.20;1.10;;;9.50;99.90;;;-141.84;81.73;29717.88;5060656;28;20228;-57
2024/03/16 04:57:03;;;;;;;1.50;1.20;;;9.60;99.90;;;-141.84;80.63;25779.31;5032897;28;20240;-62
2024/03/16 04:59:35;;;;;;;2.00;1.90;;;9.50;99.90;;;-141.84;80.99;26420.53;5049813;28;20243;-57
2024/03/16 05:02:04;;;;;;;1.93;1.83;;;9.50;99.90;;;-141.84;79.59;22654.06;5069498;28;20657;-58
2024/03/16 05:04:35;;;;;;;1.53;1.43;;;9.60;99.90;;;-141.84;79.95;23290.72;5049045;28;20193;-55
2024/03/16 05:07:03;;;;;;;2.20;2.10;;;9.60;99.90;;;-141.84;79.42;22259.53;5058115;28;20635;-57
2024/03/16 05:09:35;;;;;;;1.60;1.50;;;9.60;99.90;;;-141.84;77.99;20305.69;5057040;28;20220;-55
2024/03/16 05:12:03;;;;;;;1.67;1.53;;;9.60;99.90;;;-141.84;78.64;21013.13;5075745;28;20662;-55
2024/03/16 05:14:35;;;;;;;4.03;3.63;;;9.60;99.90;;;-141.84;78.86;21448.19;5057703;28;20243;-57
2024/03/16 05:17:04;;;;;;;3.53;3.30;;;9.60;99.90;;;-141.84;78.67;21041.56;5057892;28;20301;-57
2024/03/16 05:19:35;;;;;;;3.00;2.80;;;9.60;99.90;;;-141.84;79.18;21765.38;5043421;28;20197;-56
2024/03/16 05:22:04;;;;;;;2.93;2.63;;;9.70;99.90;;;-141.84;79.17;22070.41;5057693;28;20656;-57
2024/03/16 05:24:35;;;;;;;3.17;2.23;;;9.70;99.90;;;-141.84;78.89;21726.75;5052697;28;20217;-57
2024/03/16 05:27:03;;;;;;;1.60;1.43;;;9.80;99.90;;;-141.84;77.93;20427.66;5057097;28;20259;-55
2024/03/16 05:29:35;;;;;;;1.40;1.20;;;9.80;99.90;;;-141.84;75.91;19187.91;5053580;28;20224;-58
2024/03/16 05:32:03;;;;;;;2.77;1.00;;;9.90;99.90;;;-141.84;77.11;19586.22;5049166;28;20229;-56
2024/03/16 05:34:35;;;;;;;1.20;1.10;;;10.00;99.90;;;-141.84;77.67;20102.44;5056215;28;20193;-55
2024/03/16 05:37:03;;;;;;;1.40;0.87;;;9.90;99.90;;;-141.84;76.96;19661.41;5049895;28;20207;-56
2024/03/16 05:39:35;;;;;;;1.50;0.90;;;10.00;99.90;;;-141.84;75.42;19082.25;5056267;28;20224;-56
2024/03/16 05:42:04;;;;;;;2.07;1.00;;;10.00;99.90;;;-141.84;72.99;18763.25;5069451;28;20219;-54
2024/03/16 05:44:35;;;;;;;1.60;0.90;;;10.20;99.90;;;-141.84;71.89;18681.97;5032740;28;20228;-56
2024/03/16 05:47:03;;;;;;;1.90;0.90;;;10.30;99.90;;;-141.84;71.60;18714.50;5037330;28;20217;-57
2024/03/16 05:49:36;;;;;;;1.30;1.20;;;10.40;99.90;;;-141.84;70.03;18655.56;5036742;28;20197;-57
2024/03/16 05:52:04;;;;;;;1.10;1.00;;;10.50;99.90;;;-141.84;69.26;18653.53;5052874;28;20220;-58
2024/03/16 05:54:35;;;;;;;1.10;0.90;;;10.60;99.90;;;-141.84;70.20;18704.31;5059712;28;20216;-63
2024/03/16 05:57:03;;;;;;;1.10;0.90;;;10.70;99.90;;;-141.84;68.81;18643.38;5058099;28;20285;-57
2024/03/16 05:59:35;;;;;;;1.50;1.10;;;10.80;99.90;;;-141.84;68.34;18612.91;5066515;28;20280;-58
2024/03/16 06:02:03;;;;;;;1.47;1.00;;;10.90;99.90;;;-141.84;67.67;18653.53;5072209;28;20803;-55
2024/03/16 06:04:35;;;;;;;1.63;0.90;;;11.10;99.90;;;-141.84;67.26;18700.25;5058906;28;20193;-57
2024/03/16 06:07:04;;;;;;;0.80;0.80;;;11.30;99.90;;;-141.84;65.80;18679.94;5057509;28;20247;-57
2024/03/16 06:09:35;;;;;;;1.20;1.02;;;11.50;99.90;;;-141.84;64.73;18716.53;5057431;28;20212;-56
2024/03/16 06:12:04;;;;;;;1.97;1.00;;;11.70;99.90;;;-141.84;64.01;18688.06;5053464;28;20254;-63
2024/03/16 06:14:35;;;;;;;1.50;1.10;;;11.80;99.90;;;-141.84;62.98;18690.09;5060745;28;20311;-63
2024/03/16 06:17:03;;;;;;;2.30;1.20;;;11.90;99.90;;;-141.84;63.12;18714.50;5059635;28;20232;-62
2024/03/16 06:19:34;;;;;;;1.73;1.20;;;11.80;99.90;;;-141.84;63.39;18688.06;5064210;28;20184;-62
2024/03/16 06:22:05;;;;;;;1.50;1.00;;;11.90;99.90;;;-141.84;63.87;18661.66;5057525;28;20258;-57
2024/03/16 06:24:35;;;;;;;1.67;1.00;;;11.80;99.90;;;-141.84;63.12;18706.38;5036407;28;20221;-55
2024/03/16 06:27:05;;;;;;;1.10;0.97;;;11.80;99.90;;;-141.84;63.84;18690.09;5034416;28;20236;-55
2024/03/16 06:29:35;;;;;;;1.40;1.30;;;11.70;99.90;;;-141.84;63.85;18704.31;5057801;28;20246;-56
2024/03/16 06:32:07;;;;;;;2.10;1.08;;;11.70;99.90;;;-141.84;64.24;18702.28;5054974;28;20260;-57
2024/03/16 06:34:35;;;;;;;1.17;1.00;;;11.70;99.90;;;-141.84;63.34;18655.56;5060930;28;20180;-62
2024/03/16 06:37:04;;;;;;;1.17;0.95;;;11.70;99.90;;;-141.84;64.55;18675.88;5061392;28;20718;-61
2024/03/16 06:39:35;;;;;;;1.70;1.23;;;11.70;99.90;;;-141.84;64.80;18702.28;5060277;28;20224;-61
2024/03/16 06:42:04;;;;;;;2.43;1.10;;;11.70;99.90;;;-141.84;65.06;18692.13;5056458;28;20776;-63
2024/03/16 06:44:35;;;;;;;4.38;1.52;;;11.80;99.90;;;-141.84;64.50;18681.97;5034749;28;20256;-63
2024/03/16 06:47:04;;;;;;;1.43;1.33;;;11.80;99.90;;;-141.84;62.83;18736.84;5034932;28;20313;-63
2024/03/16 06:49:35;;;;;;;1.98;1.33;;;11.90;99.90;;;-141.84;63.78;18698.22;5042853;28;20197;-63
2024/03/16 06:52:03;;;;;;;1.73;1.40;;;11.90;99.90;;;-141.84;62.13;18694.16;5055726;28;20204;-64
2024/03/16 06:54:36;;;;;;;2.45;1.40;;;12.00;99.90;;;-141.84;62.34;18742.94;5059302;28;20224;-63
2024/03/16 06:57:04;;;;;;;1.35;1.25;;;12.00;99.90;;;-141.84;63.19;18710.44;5034814;28;20221;-62
2024/03/16 06:59:35;;;;;;;1.83;1.50;;;12.10;99.90;;;-141.84;63.17;18722.63;5042681;28;20217;-61
2024/03/16 07:02:04;;;;;;;2.73;1.53;;;12.20;99.90;;;-141.84;63.21;18755.13;5050778;28;20749;-55
2024/03/16 07:04:35;;;;;;;2.07;1.70;;;12.20;99.90;;;-141.84;64.19;18734.81;5053372;28;20189;-62
2024/03/16 07:07:04;;;;;;;2.75;1.80;;;12.10;99.90;;;-141.84;63.54;18696.19;5060070;28;20185;-62
2024/03/16 07:09:35;;;;;;;2.10;1.70;;;12.10;99.90;;;-141.84;64.35;18736.84;5060328;28;20232;-59
2024/03/16 07:12:04;;;;;;;3.03;1.90;;;12.10;99.90;;;-141.84;65.30;18753.09;5057070;28;20229;-56
2024/03/16 07:14:35;;;;;;;3.28;1.85;;;12.10;99.90;;;-141.84;65.28;18700.25;5071284;28;20224;-61
2024/03/16 07:17:04;;;;;;;3.17;1.90;;;12.10;99.90;;;-141.84;65.86;18747.00;5052487;28;20247;-62
2024/03/16 07:19:35;;;;;;;2.10;1.87;;;12.10;99.90;;;-141.84;66.25;18740.91;5058852;28;20239;-57
2024/03/16 07:22:04;;;;;;;2.22;1.90;;;12.00;99.90;;;-141.84;66.44;18740.91;5059521;28;20184;-63
2024/03/16 07:24:35;;;;;;;2.80;1.90;;;12.10;99.90;;;-141.84;65.30;18716.53;5067488;28;20221;-62
2024/03/16 07:27:05;;;;;;;2.70;2.23;;;12.20;99.90;;;-141.84;64.01;18753.09;5025527;28;20216;-57
2024/03/16 07:29:35;;;;;;;3.38;2.00;;;12.40;99.90;;;-141.84;63.25;18749.03;5079411;28;20219;-63
2024/03/16 07:32:03;;;;;;;2.50;1.85;;;12.50;99.90;;;-141.84;63.60;18759.19;5059767;28;20307;-63
2024/03/16 07:34:35;;;;;;;2.47;1.83;;;12.60;99.90;;;-141.84;62.47;18744.97;5071524;28;20260;-62
2024/03/16 07:37:04;;;;;;;3.30;1.77;;;12.70;99.90;;;-141.84;62.69;18749.03;5054931;28;20271;-62
2024/03/16 07:39:35;;;;;;;2.38;1.92;;;12.70;99.90;;;-141.84;63.00;18785.59;5059687;28;20661;-62
2024/03/16 07:42:04;;;;;;;2.58;2.05;;;12.70;99.90;;;-141.84;62.60;18785.59;5047858;28;20236;-62
2024/03/16 07:44:35;;;;;;;2.35;2.15;;;12.80;99.90;;;-141.84;63.42;18761.22;5053100;28;20220;-56
2024/03/16 07:47:03;;;;;;;2.20;2.00;;;12.80;99.90;;;-141.84;62.67;18753.09;5059518;28;20684;-57
2024/03/16 07:49:35;;;;;;;2.90;1.90;;;12.80;99.90;;;-141.84;63.21;18783.56;5059342;28;20868;-56
2024/03/16 07:52:04;;;;;;;2.67;2.10;;;12.80;99.90;;;-141.84;64.09;18755.13;5055505;28;20220;-61
2024/03/16 07:54:35;;;;;;;5.53;2.22;;;12.60;99.90;;;-141.84;64.51;18781.53;5060389;28;20224;-56
2024/03/16 07:57:04;;;;;;;3.65;2.08;;;12.50;99.90;;;-141.84;63.68;18755.13;5032888;28;20333;-57
2024/03/16 07:59:35;;;;;;;3.55;2.10;;;12.50;99.90;;;-141.84;63.28;18830.31;5043350;28;20296;-57
2024/03/16 08:02:04;;;;;;;3.22;1.98;;;12.70;99.90;;;-141.84;62.91;18759.19;5050238;28;20252;-56
2024/03/16 08:04:35;;;;;;;2.35;1.80;;;12.70;99.90;;;-141.84;62.46;18816.06;5051459;28;20197;-57
2024/03/16 08:07:04;;;;;;;1.95;1.75;;;12.80;99.90;;;-141.84;61.24;18757.16;5039500;28;20224;-63
2024/03/16 08:09:34;;;;;;;4.22;1.92;;;12.90;99.90;;;-141.84;61.24;18728.72;5038032;28;20271;-62
2024/03/16 08:12:02;;;;;;;4.28;2.08;;;13.00;99.90;;;-141.84;60.28;18809.97;5045860;28;20235;-62
2024/03/16 08:14:35;;;;;;;2.97;1.90;;;13.10;99.90;;;-141.84;59.92;18816.06;5056765;28;20233;-62
2024/03/16 08:17:03;;;;;;;2.65;1.77;;;13.30;99.90;;;-141.84;59.62;18785.59;5050612;28;20254;-63
2024/03/16 08:19:37;;;;;;;2.20;1.77;;;13.40;99.90;;;-141.84;58.91;18830.31;5058731;28;20199;-63
2024/03/16 08:22:05;;;;;;;2.40;2.20;;;13.50;99.90;;;-141.84;58.54;18838.44;5059307;28;20189;-62
2024/03/16 08:24:35;;;;;;;2.25;2.00;;;13.60;99.90;;;-141.84;58.12;18887.19;5050445;28;20232;-62
2024/03/16 08:27:05;;;;;;;2.47;2.20;;;13.80;99.90;;;-141.84;56.38;18901.41;5038325;28;20743;-61
2024/03/16 08:29:35;;;;;;;3.05;2.20;;;14.00;99.90;;;-141.84;56.34;18895.31;5037522;28;20216;-63
2024/03/16 08:32:04;;;;;;;2.50;2.30;;;14.10;99.90;;;-141.84;55.59;18891.25;5038174;28;20227;-57
2024/03/16 08:34:35;;;;;;;2.83;2.53;;;14.20;99.90;;;-141.84;54.97;18897.34;5036176;28;20224;-62
2024/03/16 08:37:03;;;;;;;3.38;2.40;;;14.40;99.90;;;-141.84;54.42;18946.13;5060570;28;20250;-57
2024/03/16 08:39:35;;;;;;;2.83;2.20;;;14.60;99.90;;;-141.84;53.81;18933.94;5054764;28;20221;-56
2024/03/16 08:42:04;;;;;;;3.17;2.90;;;14.70;99.90;;;-141.84;53.54;18946.13;5048225;28;20232;-58
2024/03/16 08:44:35;;;;;;;3.90;2.53;;;14.90;99.90;;;-141.84;52.30;19019.28;5032737;28;20221;-57
2024/03/16 08:47:05;;;;;;;2.03;1.80;;;15.10;99.90;;;-141.84;52.95;19049.75;5051600;28;20693;-58
2024/03/16 08:49:35;;;;;;;2.33;1.80;;;15.00;99.90;;;-141.84;53.10;18970.50;5038955;28;20193;-57
2024/03/16 08:52:04;;;;;;;3.33;1.55;;;14.90;99.90;;;-141.84;53.13;19039.59;5058249;28;20189;-56
2024/03/16 08:54:35;;;;;;;2.55;1.70;;;15.00;99.90;;;-141.84;52.55;19011.13;5056773;28;20224;-57
2024/03/16 08:57:04;;;;;;;2.42;1.65;;;14.90;99.90;;;-141.84;53.04;19005.03;5031450;28;20235;-57
2024/03/16 08:59:36;;;;;;;1.45;1.35;;;14.90;99.90;;;-141.84;53.27;18970.50;5032237;28;20221;-56
2024/03/16 09:02:04;;;;;;;3.13;1.60;;;14.80;99.90;;;-141.84;53.14;18976.59;5044632;28;20277;-62
2024/03/16 09:04:35;;;;;;;1.55;1.45;;;14.90;99.90;;;-141.84;53.15;19017.25;5068898;28;20230;-62
2024/03/16 09:07:04;;;;;;;2.35;1.77;;;14.80;99.90;;;-141.84;53.99;18968.47;5058008;28;20189;-62
2024/03/16 09:09:35;;;;;;;1.98;1.67;;;14.70;99.90;;;-141.84;54.76;18962.38;5052743;28;20234;-62
2024/03/16 09:12:05;;;;;;;3.25;1.70;;;14.50;99.90;;;-141.84;55.35;18948.16;5054992;28;20235;-62
2024/03/16 09:14:35;;;;;;;2.83;2.22;;;14.40;99.90;;;-141.84;55.82;18913.59;5055877;28;20224;-62
2024/03/16 09:17:04;;;;;;;3.88;2.40;;;14.30;99.90;;;-141.84;56.34;18901.41;5050491;28;20255;-63
2024/03/16 09:19:36;;;;;;;3.03;2.05;;;14.30;99.90;;;-141.84;56.25;18907.50;5058122;28;20227;-63
2024/03/16 09:22:04;;;;;;;3.78;2.20;;;14.30;99.90;;;-141.84;55.56;18935.97;5056041;28;20242;-62
2024/03/16 09:24:35;;;;;;;2.38;2.15;;;14.30;99.90;;;-141.84;55.99;18921.75;5067410;28;20220;-63
2024/03/16 09:27:04;;;;;;;2.97;2.67;;;14.30;99.90;;;-141.84;56.49;18933.94;5055119;28;20247;-63
2024/03/16 09:29:35;;;;;;;4.45;2.28;;;14.30;99.90;;;-141.84;56.42;18917.66;5052156;28;20235;-63
2024/03/16 09:32:03;;;;;;;2.60;2.10;;;14.30;99.90;;;-141.84;56.82;18889.22;5057522;28;20275;-62
2024/03/16 09:34:34;;;;;;;4.90;2.10;;;14.30;99.90;;;-141.84;56.92;18940.03;5057363;28;20243;-63
2024/03/16 09:37:03;;;;;;;5.78;2.42;;;14.20;99.90;;;-141.84;56.93;18942.06;5067623;28;20185;-63
2024/03/16 09:39:35;;;;;;;3.13;2.25;;;14.20;99.90;;;-141.84;56.99;18944.09;5055559;28;20227;-61
2024/03/16 09:42:04;;;;;;;2.58;2.38;;;14.30;99.90;;;-141.84;56.18;18935.97;5054586;28;20232;-62
2024/03/16 09:44:35;;;;;;;2.85;2.20;;;14.40;99.90;;;-141.84;55.79;18994.88;5059202;28;20224;-62
2024/03/16 09:47:02;;;;;;;4.00;2.58;;;14.40;99.90;;;-141.84;56.54;18927.84;5061041;28;20216;-63
2024/03/16 09:49:35;;;;;;;3.72;2.78;;;14.40;99.90;;;-141.84;55.97;18942.06;5061807;28;20201;-63
2024/03/16 09:52:04;;;;;;;2.80;2.50;;;14.60;99.90;;;-141.84;55.88;18996.91;5054363;28;20560;-63
2024/03/16 09:54:37;;;;;;;2.97;2.42;;;14.60;99.90;;;-141.84;56.87;18927.84;5044909;28;20226;-62
2024/03/16 09:57:05;;;;;;;3.22;2.47;;;14.60;99.90;;;-141.84;55.82;18970.50;5045821;28;20235;-64
2024/03/16 09:59:36;;;;;;;3.03;2.72;;;14.80;99.90;;;-141.84;55.76;18988.78;5060510;28;20231;-63
2024/03/16 10:02:03;;;;;;;2.85;2.50;;;14.90;99.90;;;-141.84;54.58;18984.72;5030667;28;20220;-62
2024/03/16 10:04:35;;;;;;;3.60;2.20;;;15.00;99.90;;;-141.84;54.62;18984.72;5022542;28;20201;-63
2024/03/16 10:07:03;;;;;;;4.65;2.63;;;15.10;99.90;;;-141.84;52.26;19059.91;5045452;28;20208;-63
2024/03/16 10:09:35;;;;;;;2.72;2.30;;;15.30;99.90;;;-141.84;51.44;19068.03;5044433;28;20216;-62
2024/03/16 10:12:11;;;;;;;2.38;1.88;;;15.20;99.90;;;-141.84;50.82;19098.50;5016182;28;20758;-63
2024/03/16 10:14:40;;;;;;;3.10;2.00;;;15.20;99.90;;;-141.84;49.57;19092.41;5018589;28;20273;-62
2024/03/16 10:17:07;;;;;;;1.75;1.63;;;15.30;99.90;;;-141.84;49.58;19179.78;5040893;28;20221;-62
2024/03/16 10:19:35;;;;;;;2.20;2.00;;;15.40;99.90;;;-141.84;50.26;19082.25;5038642;28;20206;-61